KWDG/WDG METAR and TAF weather

Enter ICAO airport designator
Station Type Date Time Source
KWDG METAR 2022/01/19 20:45 UTC NOAA

KWDG 192045Z 36026G32KT 10SM SCT065 BKN150 00/M13 A3027


Station Type Date Time Source
KWDG Decoded METAR 2022/01/19 20:45 UTC NOAA

Enid, Enid Woodring Regional Airport, OK, United States (KWDG) 36-22-45N 097-47-28W
Jan 19, 2022 - 03:45 PM EST / 2022.01.19 2045 UTC
Wind: from the N (360 degrees) at 30 MPH (26 KT) gusting to 37 MPH (32 KT):0
Visibility: 10 mile(s):0
Sky conditions: mostly cloudy
Temperature: 32 F (0 C)
Windchill: 17 F (-8 C):1
Dew Point: 8 F (-13 C)
Relative Humidity: 36%
Pressure (altimeter): 30.27 in. Hg (1025 hPa)
ob: KWDG 192045Z 36026G32KT 10SM SCT065 BKN150 00/M13 A3027
cycle: 21

Station Type Date Time Source
KWDG TAF UTC NOAA

Error!

Example: see airport list